Green City, Missouri
Current Conditions -  °F | °C
As of 9:55 AM on Thursday 27 Nov 2014 (Local Time) from KIRK Reporting Station
Scattered Clouds Scattered Clouds  
Wind Chill: 13°   Ceiling: Unl
Heat Index: 22°   Visibility: 10mi
Dew Point: 17°   Wind: 8mph
Humidity: 82%   Direction: 310°NW
Pressure: 30.51"   Gusts: NA
Location:  40.27°N, 92.95°W
Report Text: KIRK 271555Z AUTO 31007KT 10SM SCT014 M06/M08 A3051 RMK AO2 SLP347 T10561083
Loading
Personal Weather Stations






























Interactive Weather Map New forecast layout! Learn more

10-Day Weather Forecast

Advertisements
Track Severe Weather on mobile